SKU011 LPPD-CYUL
Flight info
| Callsign | SKU011 |
|---|---|
| Flight time | N/A |
| Altitude | 36000 |
| Route | SOMUL DCT 39N030W 43N040W DCT RAFIN/N0455F360 DCT MIILS DCT ODBOS OMBRE2 |
| Aircraft | A320/M-SDE3FGHIRWY/LB1 |
Departure
| Time | 2026-05-07 16:27 |
|---|---|
| Airport | João Paulo II Airport (LPPD) |
Arrival
| Time | N/A |
|---|---|
| Airport | Montreal / Pierre Elliott Trudeau International Airport (CYUL) |
| Time | Latitude | Longitude | Altitude | Speed | Heading |
|---|---|---|---|---|---|
| 2026-05-07 16:27 | 37.75958 | -25.82167 | 4114 ft | 240 kts | 279° |
| 2026-05-07 16:27 | 37.76140 | -25.84282 | 4920 ft | 243 kts | 279° |
| 2026-05-07 16:27 | 37.76321 | -25.86413 | 5709 ft | 246 kts | 279° |
| 2026-05-07 16:27 | 37.76503 | -25.88577 | 6471 ft | 249 kts | 278° |
| 2026-05-07 16:28 | 37.76688 | -25.90763 | 7203 ft | 252 kts | 278° |
| 2026-05-07 16:28 | 37.76877 | -25.92979 | 7975 ft | 254 kts | 279° |
| 2026-05-07 16:28 | 37.77097 | -25.95206 | 8731 ft | 255 kts | 285° |
| 2026-05-07 16:28 | 37.77794 | -25.97255 | 9458 ft | 257 kts | 305° |
| 2026-05-07 16:29 | 37.79067 | -25.98853 | 10153 ft | 262 kts | 324° |
| 2026-05-07 16:29 | 37.80772 | -25.99753 | 10796 ft | 273 kts | 343° |
| 2026-05-07 16:29 | 37.82683 | -26.00326 | 10981 ft | 293 kts | 339° |
| 2026-05-07 16:29 | 37.84668 | -26.01136 | 11117 ft | 314 kts | 338° |
| 2026-05-07 16:30 | 37.86761 | -26.02125 | 11434 ft | 324 kts | 329° |
| 2026-05-07 16:30 | 37.88641 | -26.03687 | 11997 ft | 325 kts | 318° |
| 2026-05-07 16:30 | 37.90256 | -26.05693 | 12629 ft | 326 kts | 307° |
| 2026-05-07 16:30 | 37.91485 | -26.08091 | 13236 ft | 327 kts | 294° |
| 2026-05-07 16:31 | 37.92281 | -26.10799 | 13844 ft | 329 kts | 288° |
| 2026-05-07 16:31 | 37.93004 | -26.13564 | 14430 ft | 331 kts | 288° |
| 2026-05-07 16:31 | 37.93713 | -26.16353 | 15007 ft | 333 kts | 287° |
| 2026-05-07 16:31 | 37.94411 | -26.19154 | 15571 ft | 335 kts | 287° |
| 2026-05-07 16:32 | 37.95116 | -26.21982 | 16139 ft | 337 kts | 287° |
| 2026-05-07 16:32 | 37.95826 | -26.24826 | 16690 ft | 339 kts | 287° |
| 2026-05-07 16:32 | 37.96542 | -26.27676 | 17238 ft | 341 kts | 288° |
| 2026-05-07 16:32 | 37.97269 | -26.30552 | 17775 ft | 343 kts | 288° |
| 2026-05-07 16:33 | 37.98000 | -26.33445 | 18293 ft | 345 kts | 288° |
| 2026-05-07 16:33 | 37.98730 | -26.36346 | 18752 ft | 347 kts | 288° |
| 2026-05-07 16:33 | 37.99464 | -26.39268 | 19229 ft | 348 kts | 288° |
| 2026-05-07 16:33 | 38.00199 | -26.42191 | 19680 ft | 350 kts | 288° |
| 2026-05-07 16:34 | 38.00939 | -26.45136 | 20150 ft | 351 kts | 288° |
| 2026-05-07 16:34 | 38.01682 | -26.48092 | 20615 ft | 352 kts | 288° |
| 2026-05-07 16:34 | 38.02427 | -26.51058 | 21074 ft | 353 kts | 288° |
| 2026-05-07 16:34 | 38.03174 | -26.54034 | 21503 ft | 355 kts | 288° |
| 2026-05-07 16:35 | 38.03919 | -26.57015 | 21938 ft | 356 kts | 287° |
| 2026-05-07 16:35 | 38.04668 | -26.60020 | 22355 ft | 358 kts | 288° |
| 2026-05-07 16:35 | 38.05418 | -26.63029 | 22783 ft | 359 kts | 288° |
| 2026-05-07 16:35 | 38.06172 | -26.66064 | 23184 ft | 361 kts | 288° |
| 2026-05-07 16:36 | 38.06926 | -26.69114 | 23570 ft | 363 kts | 287° |
| 2026-05-07 16:36 | 38.07683 | -26.72180 | 23905 ft | 364 kts | 288° |
| 2026-05-07 16:36 | 38.08439 | -26.75248 | 24236 ft | 366 kts | 288° |
| 2026-05-07 16:36 | 38.09202 | -26.78339 | 24535 ft | 367 kts | 288° |
| 2026-05-07 16:37 | 38.09966 | -26.81432 | 24853 ft | 369 kts | 288° |
| 2026-05-07 16:37 | 38.10736 | -26.84547 | 25171 ft | 370 kts | 288° |
| 2026-05-07 16:37 | 38.11497 | -26.87631 | 25495 ft | 371 kts | 288° |
| 2026-05-07 16:37 | 38.12272 | -26.90768 | 25785 ft | 373 kts | 288° |
| 2026-05-07 16:38 | 38.13045 | -26.93908 | 26085 ft | 374 kts | 288° |
| 2026-05-07 16:38 | 38.13822 | -26.97071 | 26404 ft | 375 kts | 288° |
| 2026-05-07 16:38 | 38.14609 | -27.00277 | 26716 ft | 377 kts | 288° |
| 2026-05-07 16:38 | 38.15382 | -27.03419 | 27000 ft | 378 kts | 288° |
| 2026-05-07 16:39 | 38.16166 | -27.06619 | 27287 ft | 380 kts | 288° |
| 2026-05-07 16:39 | 38.16947 | -27.09823 | 27563 ft | 381 kts | 288° |
| 2026-05-07 16:39 | 38.17733 | -27.13052 | 27829 ft | 383 kts | 288° |
| 2026-05-07 16:39 | 38.18522 | -27.16294 | 28083 ft | 385 kts | 288° |
| 2026-05-07 16:40 | 38.19316 | -27.19548 | 28327 ft | 386 kts | 287° |
| 2026-05-07 16:40 | 38.20107 | -27.22808 | 28579 ft | 388 kts | 287° |
| 2026-05-07 16:40 | 38.20901 | -27.26092 | 28843 ft | 389 kts | 287° |
| 2026-05-07 16:40 | 38.21698 | -27.29387 | 29071 ft | 390 kts | 287° |
| 2026-05-07 16:41 | 38.22505 | -27.32692 | 29314 ft | 392 kts | 288° |
| 2026-05-07 16:41 | 38.23409 | -27.35968 | 29561 ft | 393 kts | 290° |
| 2026-05-07 16:41 | 38.24395 | -27.39211 | 29883 ft | 392 kts | 291° |
| 2026-05-07 16:41 | 38.25412 | -27.42412 | 30204 ft | 391 kts | 291° |
| 2026-05-07 16:42 | 38.26435 | -27.45615 | 30475 ft | 390 kts | 291° |
| 2026-05-07 16:42 | 38.27445 | -27.48816 | 30754 ft | 389 kts | 291° |
| 2026-05-07 16:42 | 38.28432 | -27.52010 | 31016 ft | 388 kts | 291° |
| 2026-05-07 16:42 | 38.29403 | -27.55209 | 31265 ft | 388 kts | 291° |
| 2026-05-07 16:43 | 38.30371 | -27.58420 | 31529 ft | 388 kts | 291° |
| 2026-05-07 16:43 | 38.31333 | -27.61628 | 31795 ft | 387 kts | 291° |
| 2026-05-07 16:43 | 38.32292 | -27.64833 | 32065 ft | 386 kts | 291° |
| 2026-05-07 16:43 | 38.33247 | -27.68021 | 32318 ft | 386 kts | 291° |
| 2026-05-07 16:44 | 38.34204 | -27.71216 | 32592 ft | 385 kts | 291° |
| 2026-05-07 16:44 | 38.35147 | -27.74361 | 32859 ft | 384 kts | 291° |
| 2026-05-07 16:44 | 38.36110 | -27.77574 | 33141 ft | 383 kts | 291° |
| 2026-05-07 16:44 | 38.37048 | -27.80706 | 33398 ft | 383 kts | 291° |
| 2026-05-07 16:45 | 38.37992 | -27.83868 | 33667 ft | 382 kts | 291° |
| 2026-05-07 16:45 | 38.38948 | -27.87074 | 33899 ft | 381 kts | 291° |
| 2026-05-07 16:45 | 38.39873 | -27.90180 | 33953 ft | 380 kts | 291° |
| 2026-05-07 16:46 | 38.41752 | -27.96481 | 33962 ft | 379 kts | 291° |
| 2026-05-07 16:46 | 38.43613 | -28.02766 | 33961 ft | 379 kts | 291° |
| 2026-05-07 16:47 | 38.45468 | -28.09047 | 34474 ft | 377 kts | 294° |
| 2026-05-07 16:47 | 38.46388 | -28.12172 | 34323 ft | 375 kts | 294° |
| 2026-05-07 16:47 | 38.47302 | -28.15272 | 34169 ft | 373 kts | 294° |
| 2026-05-07 16:47 | 38.48219 | -28.18371 | 34023 ft | 372 kts | 295° |
| 2026-05-07 16:48 | 38.49135 | -28.21462 | 33973 ft | 372 kts | 295° |
| 2026-05-07 16:48 | 38.50955 | -28.27636 | 33966 ft | 372 kts | 295° |
| 2026-05-07 16:49 | 38.52770 | -28.33811 | 33973 ft | 371 kts | 295° |
| 2026-05-07 16:49 | 38.54581 | -28.39985 | 33979 ft | 371 kts | 295° |
| 2026-05-07 16:50 | 38.56391 | -28.46154 | 33981 ft | 371 kts | 295° |
| 2026-05-07 16:50 | 38.58190 | -28.52336 | 33975 ft | 371 kts | 295° |
| 2026-05-07 16:51 | 38.59976 | -28.58507 | 33974 ft | 370 kts | 295° |
| 2026-05-07 16:51 | 38.61762 | -28.64671 | 33973 ft | 370 kts | 295° |
| 2026-05-07 16:52 | 38.63549 | -28.70839 | 33973 ft | 369 kts | 295° |
| 2026-05-07 16:52 | 38.65321 | -28.76992 | 33977 ft | 369 kts | 295° |
| 2026-05-07 16:53 | 38.67097 | -28.83140 | 33978 ft | 368 kts | 295° |
| 2026-05-07 16:53 | 38.68858 | -28.89259 | 33982 ft | 368 kts | 295° |
| 2026-05-07 16:54 | 38.70623 | -28.95409 | 33989 ft | 368 kts | 295° |
| 2026-05-07 16:54 | 38.72384 | -29.01556 | 33995 ft | 368 kts | 295° |
| 2026-05-07 16:55 | 38.74139 | -29.07710 | 34003 ft | 367 kts | 295° |
| 2026-05-07 16:55 | 38.75891 | -29.13851 | 34002 ft | 367 kts | 296° |
| 2026-05-07 16:56 | 38.77643 | -29.20002 | 34005 ft | 367 kts | 296° |
| 2026-05-07 16:56 | 38.79962 | -29.28182 | 34007 ft | 367 kts | 296° |
| 2026-05-07 16:57 | 38.81693 | -29.34328 | 34020 ft | 367 kts | 296° |
| 2026-05-07 16:57 | 38.83421 | -29.40471 | 34015 ft | 366 kts | 296° |
| 2026-05-07 16:58 | 38.85153 | -29.46620 | 34018 ft | 366 kts | 296° |
| 2026-05-07 16:58 | 38.86880 | -29.52761 | 34017 ft | 366 kts | 296° |
| 2026-05-07 16:59 | 38.88605 | -29.58920 | 34022 ft | 366 kts | 296° |
| 2026-05-07 16:59 | 38.90324 | -29.65076 | 34023 ft | 366 kts | 296° |
| 2026-05-07 17:00 | 38.92043 | -29.71232 | 34026 ft | 366 kts | 296° |
| 2026-05-07 17:00 | 38.93761 | -29.77400 | 34026 ft | 366 kts | 296° |
| 2026-05-07 17:01 | 38.95471 | -29.83557 | 34033 ft | 366 kts | 296° |
| 2026-05-07 17:01 | 38.97174 | -29.89716 | 34036 ft | 366 kts | 296° |
| 2026-05-07 17:02 | 38.98871 | -29.95874 | 34037 ft | 366 kts | 296° |
| 2026-05-07 17:02 | 39.00856 | -30.01836 | 34036 ft | 359 kts | 305° |
| 2026-05-07 17:03 | 39.03436 | -30.07326 | 34040 ft | 359 kts | 305° |
| 2026-05-07 17:03 | 39.06016 | -30.12821 | 34041 ft | 359 kts | 305° |
| 2026-05-07 17:04 | 39.08580 | -30.18296 | 34049 ft | 359 kts | 305° |
| 2026-05-07 17:04 | 39.11145 | -30.23806 | 34047 ft | 359 kts | 305° |
| 2026-05-07 17:05 | 39.13707 | -30.29317 | 34051 ft | 359 kts | 305° |
| 2026-05-07 17:05 | 39.16293 | -30.34876 | 34054 ft | 359 kts | 305° |
| 2026-05-07 17:06 | 39.18842 | -30.40356 | 34052 ft | 359 kts | 305° |
| 2026-05-07 17:06 | 39.21400 | -30.45882 | 34052 ft | 359 kts | 305° |
| 2026-05-07 17:07 | 39.23957 | -30.51412 | 34056 ft | 359 kts | 304° |
| 2026-05-07 17:07 | 39.26509 | -30.56955 | 34056 ft | 359 kts | 304° |
| 2026-05-07 17:08 | 39.29067 | -30.62492 | 34061 ft | 359 kts | 305° |
| 2026-05-07 17:08 | 39.31624 | -30.68033 | 34065 ft | 360 kts | 304° |
| 2026-05-07 17:09 | 39.34174 | -30.73598 | 34062 ft | 360 kts | 304° |
| 2026-05-07 17:09 | 39.36723 | -30.79160 | 34062 ft | 360 kts | 304° |
| 2026-05-07 17:10 | 39.39273 | -30.84719 | 34058 ft | 360 kts | 304° |
| 2026-05-07 17:10 | 39.41821 | -30.90287 | 34064 ft | 360 kts | 304° |
| 2026-05-07 17:11 | 39.44369 | -30.95879 | 34060 ft | 361 kts | 304° |
| 2026-05-07 17:11 | 39.46913 | -31.01472 | 34053 ft | 361 kts | 304° |
| 2026-05-07 17:12 | 39.49444 | -31.07052 | 34054 ft | 362 kts | 304° |
| 2026-05-07 17:12 | 39.52009 | -31.12706 | 34054 ft | 362 kts | 304° |
| 2026-05-07 17:13 | 39.54557 | -31.18331 | 34055 ft | 362 kts | 304° |
| 2026-05-07 17:13 | 39.57091 | -31.23935 | 34058 ft | 363 kts | 304° |
| 2026-05-07 17:14 | 39.59634 | -31.29580 | 34070 ft | 363 kts | 304° |
| 2026-05-07 17:14 | 39.62182 | -31.35237 | 34079 ft | 364 kts | 304° |
| 2026-05-07 17:15 | 39.64733 | -31.40911 | 34085 ft | 365 kts | 304° |
| 2026-05-07 17:15 | 39.67291 | -31.46607 | 34093 ft | 365 kts | 304° |
| 2026-05-07 17:16 | 39.69846 | -31.52310 | 34098 ft | 366 kts | 304° |
| 2026-05-07 17:16 | 39.72401 | -31.58029 | 34103 ft | 367 kts | 304° |
| 2026-05-07 17:17 | 39.74967 | -31.63781 | 34104 ft | 367 kts | 304° |
| 2026-05-07 17:17 | 39.77523 | -31.69518 | 34108 ft | 367 kts | 304° |
| 2026-05-07 17:18 | 39.80078 | -31.75261 | 34106 ft | 367 kts | 304° |
| 2026-05-07 17:18 | 39.82631 | -31.81017 | 34112 ft | 368 kts | 304° |
| 2026-05-07 17:19 | 39.85184 | -31.86787 | 34115 ft | 368 kts | 304° |
| 2026-05-07 17:19 | 39.87749 | -31.92594 | 34126 ft | 369 kts | 304° |
| 2026-05-07 17:20 | 39.90308 | -31.98393 | 34117 ft | 369 kts | 304° |
| 2026-05-07 17:20 | 39.92870 | -32.04207 | 34120 ft | 370 kts | 304° |
| 2026-05-07 17:21 | 39.95425 | -32.10017 | 34118 ft | 370 kts | 304° |
| 2026-05-07 17:21 | 39.97974 | -32.15837 | 34122 ft | 370 kts | 304° |
| 2026-05-07 17:22 | 40.00527 | -32.21666 | 34130 ft | 370 kts | 304° |
| 2026-05-07 17:22 | 40.03086 | -32.27515 | 34132 ft | 371 kts | 304° |
| 2026-05-07 17:23 | 40.05642 | -32.33365 | 34136 ft | 371 kts | 304° |
| 2026-05-07 17:23 | 40.08193 | -32.39225 | 34136 ft | 371 kts | 304° |
| 2026-05-07 17:24 | 40.10747 | -32.45099 | 34137 ft | 371 kts | 304° |
| 2026-05-07 17:24 | 40.13295 | -32.50962 | 34139 ft | 371 kts | 304° |
| 2026-05-07 17:25 | 40.15827 | -32.56801 | 34143 ft | 371 kts | 304° |
| 2026-05-07 17:25 | 40.18367 | -32.62684 | 34148 ft | 372 kts | 304° |
| 2026-05-07 17:26 | 40.20908 | -32.68596 | 34155 ft | 373 kts | 303° |
| 2026-05-07 17:26 | 40.23443 | -32.74514 | 34153 ft | 373 kts | 304° |
| 2026-05-07 17:27 | 40.25992 | -32.80428 | 34155 ft | 373 kts | 304° |
| 2026-05-07 17:27 | 40.28545 | -32.86359 | 34156 ft | 374 kts | 303° |
| 2026-05-07 17:28 | 40.31083 | -32.92297 | 34158 ft | 374 kts | 303° |
| 2026-05-07 17:28 | 40.33618 | -32.98243 | 34166 ft | 374 kts | 303° |
| 2026-05-07 17:29 | 40.36163 | -33.04202 | 34168 ft | 374 kts | 303° |
| 2026-05-07 17:29 | 40.38700 | -33.10160 | 34167 ft | 374 kts | 303° |
| 2026-05-07 17:30 | 40.41237 | -33.16128 | 34169 ft | 375 kts | 303° |
| 2026-05-07 17:30 | 40.43776 | -33.22103 | 34172 ft | 375 kts | 303° |
| 2026-05-07 17:31 | 40.46305 | -33.28106 | 34172 ft | 375 kts | 303° |
| 2026-05-07 17:31 | 40.48832 | -33.34101 | 34172 ft | 375 kts | 303° |
| 2026-05-07 17:32 | 40.51361 | -33.40102 | 34177 ft | 376 kts | 303° |
| 2026-05-07 17:32 | 40.53459 | -33.45106 | 34173 ft | 376 kts | 303° |
| 2026-05-07 17:33 | 40.56420 | -33.52153 | 34178 ft | 377 kts | 303° |
| 2026-05-07 17:33 | 40.58949 | -33.58196 | 34188 ft | 377 kts | 303° |
| 2026-05-07 17:34 | 40.61486 | -33.64244 | 34186 ft | 378 kts | 303° |
| 2026-05-07 17:34 | 40.64008 | -33.70277 | 34187 ft | 379 kts | 303° |
| 2026-05-07 17:35 | 40.66552 | -33.76404 | 34181 ft | 379 kts | 302° |
| 2026-05-07 17:35 | 40.69079 | -33.82504 | 34195 ft | 380 kts | 302° |
| 2026-05-07 17:36 | 40.71597 | -33.88586 | 34190 ft | 380 kts | 302° |
| 2026-05-07 17:36 | 40.73723 | -33.93719 | 34189 ft | 381 kts | 302° |
| 2026-05-07 17:37 | 40.76673 | -34.00839 | 34196 ft | 381 kts | 302° |
| 2026-05-07 17:37 | 40.79204 | -34.06991 | 34202 ft | 382 kts | 302° |
| 2026-05-07 17:38 | 40.81739 | -34.13167 | 34201 ft | 382 kts | 302° |
| 2026-05-07 17:38 | 40.84277 | -34.19340 | 34202 ft | 383 kts | 302° |
| 2026-05-07 17:39 | 40.86819 | -34.25537 | 34206 ft | 383 kts | 302° |
| 2026-05-07 17:39 | 40.89352 | -34.31740 | 34203 ft | 384 kts | 302° |
| 2026-05-07 17:40 | 40.91885 | -34.37957 | 34210 ft | 384 kts | 302° |
| 2026-05-07 17:40 | 40.94009 | -34.43179 | 34206 ft | 385 kts | 302° |
| 2026-05-07 17:41 | 40.96542 | -34.49418 | 34211 ft | 385 kts | 302° |
| 2026-05-07 17:41 | 40.99077 | -34.55667 | 34208 ft | 386 kts | 302° |
| 2026-05-07 17:42 | 41.01598 | -34.61896 | 34207 ft | 386 kts | 302° |
| 2026-05-07 17:42 | 41.04126 | -34.68170 | 34218 ft | 387 kts | 302° |
| 2026-05-07 17:43 | 41.06660 | -34.74453 | 34217 ft | 387 kts | 302° |
| 2026-05-07 17:43 | 41.09193 | -34.80749 | 34217 ft | 388 kts | 302° |
| 2026-05-07 17:44 | 41.11730 | -34.87069 | 34228 ft | 388 kts | 302° |
| 2026-05-07 17:44 | 41.14260 | -34.93391 | 34229 ft | 388 kts | 301° |
| 2026-05-07 17:45 | 41.16791 | -34.99723 | 34227 ft | 389 kts | 301° |
| 2026-05-07 17:45 | 41.19325 | -35.06058 | 34228 ft | 389 kts | 301° |
| 2026-05-07 17:46 | 41.21853 | -35.12421 | 34231 ft | 389 kts | 301° |
| 2026-05-07 17:46 | 41.24374 | -35.18784 | 34230 ft | 390 kts | 301° |
| 2026-05-07 17:47 | 41.26904 | -35.25168 | 34232 ft | 390 kts | 301° |
| 2026-05-07 17:47 | 41.29433 | -35.31552 | 34230 ft | 391 kts | 301° |
| 2026-05-07 17:48 | 41.31949 | -35.37960 | 34237 ft | 391 kts | 301° |
| 2026-05-07 17:48 | 41.34471 | -35.44370 | 34239 ft | 391 kts | 301° |
| 2026-05-07 17:49 | 41.37003 | -35.50797 | 34243 ft | 392 kts | 301° |
| 2026-05-07 17:49 | 41.39523 | -35.57230 | 34245 ft | 392 kts | 301° |
| 2026-05-07 17:50 | 41.42039 | -35.63681 | 34249 ft | 393 kts | 301° |
| 2026-05-07 17:50 | 41.44539 | -35.70112 | 34241 ft | 393 kts | 301° |
| 2026-05-07 17:51 | 41.47059 | -35.76580 | 34247 ft | 393 kts | 301° |
| 2026-05-07 17:51 | 41.49575 | -35.83065 | 34243 ft | 394 kts | 301° |
| 2026-05-07 17:52 | 41.52097 | -35.89562 | 34252 ft | 395 kts | 301° |
| 2026-05-07 17:52 | 41.54621 | -35.96080 | 34251 ft | 395 kts | 300° |
| 2026-05-07 17:53 | 41.57136 | -36.02602 | 34253 ft | 395 kts | 300° |
| 2026-05-07 17:53 | 41.59650 | -36.09141 | 34576 ft | 396 kts | 300° |
| 2026-05-07 17:54 | 41.60905 | -36.12413 | 34830 ft | 395 kts | 300° |
| 2026-05-07 17:54 | 41.62157 | -36.15679 | 35082 ft | 394 kts | 300° |
| 2026-05-07 17:54 | 41.63401 | -36.18928 | 35332 ft | 393 kts | 300° |
| 2026-05-07 17:54 | 41.64647 | -36.22182 | 35570 ft | 392 kts | 300° |
| 2026-05-07 17:55 | 41.65889 | -36.25431 | 35794 ft | 392 kts | 300° |
| 2026-05-07 17:55 | 41.67126 | -36.28663 | 36011 ft | 391 kts | 300° |
| 2026-05-07 17:55 | 41.68366 | -36.31901 | 36198 ft | 391 kts | 300° |
| 2026-05-07 17:55 | 41.69604 | -36.35140 | 36262 ft | 390 kts | 300° |
| 2026-05-07 17:56 | 41.72071 | -36.41613 | 36262 ft | 390 kts | 300° |
| 2026-05-07 17:56 | 41.74522 | -36.48084 | 36262 ft | 390 kts | 300° |
| 2026-05-07 17:57 | 41.76557 | -36.53461 | 36267 ft | 390 kts | 299° |
| 2026-05-07 17:57 | 41.79421 | -36.61044 | 36263 ft | 390 kts | 299° |
| 2026-05-07 17:58 | 41.81855 | -36.67503 | 36264 ft | 390 kts | 299° |
| 2026-05-07 17:58 | 41.84299 | -36.73997 | 36259 ft | 390 kts | 299° |
| 2026-05-07 17:59 | 41.86741 | -36.80496 | 36264 ft | 390 kts | 299° |
| 2026-05-07 17:59 | 41.89185 | -36.87011 | 36261 ft | 390 kts | 299° |
| 2026-05-07 18:00 | 41.91616 | -36.93526 | 36253 ft | 391 kts | 299° |
| 2026-05-07 18:00 | 41.94045 | -37.00046 | 36257 ft | 391 kts | 299° |
| 2026-05-07 18:01 | 41.96478 | -37.06582 | 36261 ft | 391 kts | 299° |
| 2026-05-07 18:01 | 41.98899 | -37.13118 | 36262 ft | 391 kts | 299° |
| 2026-05-07 18:02 | 42.02531 | -37.22938 | 36261 ft | 391 kts | 298° |
| 2026-05-07 18:03 | 42.04950 | -37.29488 | 36265 ft | 391 kts | 298° |
| 2026-05-07 18:03 | 42.07367 | -37.36057 | 36267 ft | 391 kts | 298° |
| 2026-05-07 18:04 | 42.09782 | -37.42617 | 36272 ft | 391 kts | 298° |
| 2026-05-07 18:04 | 42.12199 | -37.49182 | 36270 ft | 391 kts | 298° |
| 2026-05-07 18:05 | 42.14599 | -37.55763 | 36270 ft | 392 kts | 298° |
| 2026-05-07 18:05 | 42.17003 | -37.62358 | 36277 ft | 392 kts | 298° |
| 2026-05-07 18:06 | 42.19402 | -37.68947 | 36280 ft | 392 kts | 298° |
| 2026-05-07 18:06 | 42.21790 | -37.75506 | 36284 ft | 392 kts | 298° |
| 2026-05-07 18:07 | 42.24192 | -37.82155 | 36287 ft | 392 kts | 298° |
| 2026-05-07 18:07 | 42.26578 | -37.88762 | 36292 ft | 392 kts | 298° |
| 2026-05-07 18:08 | 42.28965 | -37.95369 | 36292 ft | 392 kts | 298° |
| 2026-05-07 18:08 | 42.31333 | -38.01949 | 36289 ft | 392 kts | 298° |
| 2026-05-07 18:09 | 42.33721 | -38.08613 | 36293 ft | 392 kts | 297° |
| 2026-05-07 18:09 | 42.36089 | -38.15241 | 36294 ft | 392 kts | 297° |
| 2026-05-07 18:10 | 42.38464 | -38.21882 | 36298 ft | 392 kts | 297° |
| 2026-05-07 18:10 | 42.40817 | -38.28472 | 36300 ft | 392 kts | 297° |
| 2026-05-07 18:11 | 42.43175 | -38.35117 | 36298 ft | 392 kts | 297° |
| 2026-05-07 18:11 | 42.45533 | -38.41776 | 36304 ft | 392 kts | 297° |
| 2026-05-07 18:12 | 42.47884 | -38.48425 | 36298 ft | 391 kts | 297° |
| 2026-05-07 18:12 | 42.50233 | -38.55073 | 36300 ft | 391 kts | 297° |
| 2026-05-07 18:13 | 42.52577 | -38.61720 | 36306 ft | 391 kts | 297° |
| 2026-05-07 18:13 | 42.54919 | -38.68384 | 36305 ft | 391 kts | 297° |
| 2026-05-07 18:14 | 42.57255 | -38.75050 | 36312 ft | 391 kts | 297° |
| 2026-05-07 18:14 | 42.59580 | -38.81709 | 36319 ft | 391 kts | 297° |
| 2026-05-07 18:15 | 42.61907 | -38.88367 | 36322 ft | 391 kts | 297° |
| 2026-05-07 18:15 | 42.64230 | -38.95043 | 36333 ft | 390 kts | 297° |
| 2026-05-07 18:16 | 42.66545 | -39.01706 | 36325 ft | 390 kts | 297° |
| 2026-05-07 18:16 | 42.68848 | -39.08373 | 36325 ft | 390 kts | 297° |
| 2026-05-07 18:17 | 42.71153 | -39.15050 | 36326 ft | 390 kts | 297° |
| 2026-05-07 18:17 | 42.73452 | -39.21718 | 36325 ft | 390 kts | 297° |
| 2026-05-07 18:18 | 42.75748 | -39.28391 | 36317 ft | 389 kts | 296° |
| 2026-05-07 18:18 | 42.78039 | -39.35079 | 36324 ft | 389 kts | 296° |
| 2026-05-07 18:19 | 42.80324 | -39.41759 | 36328 ft | 389 kts | 296° |
| 2026-05-07 18:19 | 42.82606 | -39.48439 | 36335 ft | 389 kts | 296° |
| 2026-05-07 18:20 | 42.84875 | -39.55123 | 36337 ft | 389 kts | 296° |
| 2026-05-07 18:20 | 42.87128 | -39.61769 | 36334 ft | 388 kts | 296° |
| 2026-05-07 18:21 | 42.89388 | -39.68443 | 36336 ft | 388 kts | 296° |
| 2026-05-07 18:21 | 42.91646 | -39.75124 | 36336 ft | 387 kts | 296° |
| 2026-05-07 18:22 | 42.93893 | -39.81794 | 36333 ft | 387 kts | 296° |
| 2026-05-07 18:22 | 42.96143 | -39.88458 | 36330 ft | 387 kts | 296° |
| 2026-05-07 18:23 | 42.98386 | -39.95139 | 36342 ft | 386 kts | 296° |
| 2026-05-07 18:23 | 43.00427 | -40.01923 | 36335 ft | 388 kts | 289° |
| 2026-05-07 18:24 | 43.01947 | -40.08990 | 36339 ft | 388 kts | 289° |
| 2026-05-07 18:24 | 43.03219 | -40.14863 | 36333 ft | 388 kts | 289° |
| 2026-05-07 18:25 | 43.04748 | -40.21924 | 36338 ft | 387 kts | 289° |
| 2026-05-07 18:25 | 43.06272 | -40.29000 | 36346 ft | 387 kts | 289° |
| 2026-05-07 18:26 | 43.07779 | -40.36070 | 36351 ft | 387 kts | 288° |
| 2026-05-07 18:26 | 43.09286 | -40.43136 | 36353 ft | 387 kts | 288° |
| 2026-05-07 18:27 | 43.10792 | -40.50208 | 36357 ft | 386 kts | 288° |
| 2026-05-07 18:27 | 43.12292 | -40.57264 | 36356 ft | 386 kts | 288° |
| 2026-05-07 18:28 | 43.13781 | -40.64319 | 36357 ft | 386 kts | 288° |
| 2026-05-07 18:28 | 43.15264 | -40.71382 | 36360 ft | 385 kts | 288° |
| 2026-05-07 18:29 | 43.16740 | -40.78428 | 36358 ft | 385 kts | 288° |
| 2026-05-07 18:29 | 43.18216 | -40.85465 | 36356 ft | 384 kts | 288° |
| 2026-05-07 18:30 | 43.19689 | -40.92517 | 36355 ft | 385 kts | 288° |
| 2026-05-07 18:30 | 43.21144 | -40.99536 | 36354 ft | 385 kts | 288° |
| 2026-05-07 18:31 | 43.22604 | -41.06597 | 36353 ft | 385 kts | 288° |
| 2026-05-07 18:31 | 43.24070 | -41.13715 | 36354 ft | 386 kts | 288° |
| 2026-05-07 18:32 | 43.25522 | -41.20794 | 36355 ft | 386 kts | 287° |
| 2026-05-07 18:32 | 43.26970 | -41.27843 | 36352 ft | 386 kts | 287° |
| 2026-05-07 18:33 | 43.28428 | -41.34979 | 36350 ft | 386 kts | 287° |
| 2026-05-07 18:33 | 43.29865 | -41.42038 | 36350 ft | 386 kts | 287° |